Time;durP1;ratioP1;P1;durP2;ratioP2;P2;SDS_P1;SDS_P2;PMS_P1;PMS_P2;Temp;Humidity;BMP_temperature;BMP_pressure;BME280_temperature;BME280_humidity;BME280_pressure;Samples;Min_cycle;Max_cycle;Signal;HPM_P1;HPM_P2
2021/12/01 00:01:33;;;;;;;;;7.25;6.00;;;;;9.27;72.70;100298.59;4886542;29;45391;-89
2021/12/01 00:03:59;;;;;;;;;7.50;7.00;;;;;9.24;72.70;100272.31;4915742;28;46135;-91
2021/12/01 00:06:24;;;;;;;;;8.00;8.00;;;;;9.07;72.37;100255.56;4916217;28;45397;-86
2021/12/01 00:08:49;;;;;;;;;7.00;7.00;;;;;9.13;72.61;100256.50;4910833;28;45410;-87
2021/12/01 00:11:15;;;;;;;;;5.00;3.00;;;;;9.45;72.63;100296.94;4906406;29;45513;-88
2021/12/01 00:13:40;;;;;;;;;5.50;5.50;;;;;8.79;72.70;100181.84;4908038;28;45656;-89
2021/12/01 00:22:33;;;;;;;;;4.00;4.00;;;;;9.29;73.10;100239.03;4911257;29;45451;-89
2021/12/01 00:24:59;;;;;;;;;4.00;4.00;;;;;9.29;73.34;100212.75;4932620;28;45400;-87
2021/12/01 00:27:25;;;;;;;;;8.75;7.75;;;;;9.31;73.19;100210.16;4922067;28;45674;-89
2021/12/01 00:29:50;;;;;;;;;6.75;6.75;;;;;9.09;73.20;100167.09;4920728;28;45274;-90
2021/12/01 00:32:19;;;;;;;;;6.75;4.00;;;;;9.02;72.95;100144.31;4926557;28;45169;-89
2021/12/01 00:34:53;;;;;;;;;7.00;6.75;;;;;9.46;73.42;100225.09;4928044;28;47299;-88
2021/12/01 00:37:22;;;;;;;;;13.00;8.00;;;;;9.82;73.03;100282.19;4938042;28;44830;-88
2021/12/01 00:39:48;;;;;;;;;7.00;7.00;;;;;9.50;73.35;100217.22;4926163;28;45440;-89
2021/12/01 00:42:13;;;;;;;;;9.00;7.00;;;;;9.83;73.32;100233.97;4929174;28;44799;-87
2021/12/01 00:44:46;;;;;;;;;7.00;4.00;;;;;9.01;73.97;100095.25;4935836;28;45451;-84
2021/12/01 00:47:15;;;;;;;;;8.75;8.00;;;;;9.85;72.65;100225.19;4899110;29;45315;-86
2021/12/01 00:49:41;;;;;;;;;8.50;8.00;;;;;9.60;73.02;100186.56;4894483;29;44819;-85
2021/12/01 00:52:07;;;;;;;;;8.00;8.00;;;;;9.84;72.97;100223.44;4922484;28;45271;-83
2021/12/01 00:54:33;;;;;;;;;7.00;7.00;;;;;9.69;73.21;100192.72;4930938;28;45339;-87
2021/12/01 00:56:58;;;;;;;;;8.00;7.00;;;;;9.15;73.31;100080.44;4912221;28;45240;-86
2021/12/01 00:59:24;;;;;;;;;5.50;4.00;;;;;9.69;72.50;100163.81;4920954;28;45271;-85
2021/12/01 01:04:34;;;;;;;;;6.75;6.75;;;;;9.81;73.09;100186.59;4903562;29;45323;-86
2021/12/01 01:06:59;;;;;;;;;3.50;3.50;;;;;9.65;73.71;100156.75;4915712;28;45423;-85
2021/12/01 01:09:31;;;;;;;;;9.00;8.00;;;;;9.85;73.34;100188.34;4920509;28;45788;-87
2021/12/01 01:17:36;;;;;;;;;6.75;5.25;;;;;9.93;72.76;100183.09;4920778;28;45327;-85
2021/12/01 01:20:02;;;;;;;;;3.75;3.75;;;;;9.60;72.22;100097.16;4925119;28;45450;-84
2021/12/01 01:22:27;;;;;;;;;4.25;4.00;;;;;9.81;72.97;100122.59;4922861;28;45395;-82
2021/12/01 01:24:52;;;;;;;;;3.50;3.50;;;;;9.78;72.55;100120.84;4923473;28;45359;-84
2021/12/01 01:27:18;;;;;;;;;2.00;2.00;;;;;9.76;72.50;100108.56;4921350;28;45179;-86
2021/12/01 01:29:43;;;;;;;;;5.00;5.00;;;;;9.92;72.96;100131.38;4920972;28;45242;-83
2021/12/01 01:32:09;;;;;;;;;5.00;3.75;;;;;9.69;72.67;100087.53;4918443;28;45474;-84
2021/12/01 01:34:34;;;;;;;;;4.25;4.25;;;;;9.88;72.42;100119.97;4912547;28;46471;-79
2021/12/01 01:36:59;;;;;;;;;3.00;3.00;;;;;9.95;72.74;100126.09;4919485;28;45276;-83
2021/12/01 01:39:25;;;;;;;;;3.00;3.00;;;;;9.90;72.82;100096.28;4920647;28;45224;-86
2021/12/01 01:41:52;;;;;;;;;7.50;4.00;;;;;9.66;72.60;100055.94;4920629;28;45386;-83
2021/12/01 01:44:17;;;;;;;;;3.50;3.50;;;;;9.55;72.98;100041.94;4918493;28;45532;-85
2021/12/01 01:46:43;;;;;;;;;3.25;3.25;;;;;9.70;72.92;100072.63;4919211;28;45445;-86
2021/12/01 01:49:20;;;;;;;;;5.25;4.75;;;;;9.93;72.88;100102.41;4920535;28;45669;-86
2021/12/01 01:51:47;;;;;;;;;3.50;3.50;;;;;9.95;73.74;100098.03;4921201;28;45267;-86
2021/12/01 01:54:13;;;;;;;;;3.50;3.50;;;;;9.96;73.47;100091.91;4918777;28;45671;-86
2021/12/01 01:56:39;;;;;;;;;6.75;4.00;;;;;9.94;73.20;100091.00;4919942;28;45242;-84
2021/12/01 01:59:05;;;;;;;;;6.00;5.00;;;;;9.85;73.75;100069.09;4920513;28;45264;-87
2021/12/01 02:03:57;;;;;;;;;4.00;4.00;;;;;9.95;73.41;100091.88;4918273;28;45346;-80
2021/12/01 02:06:23;;;;;;;;;4.50;4.50;;;;;9.86;73.62;100076.09;4919426;28;45282;-81
2021/12/01 02:08:50;;;;;;;;;11.25;7.00;;;;;9.93;73.72;100084.00;4921746;28;45566;-81
2021/12/01 02:11:17;;;;;;;;;7.75;7.00;;;;;9.77;73.43;100040.19;4923869;28;45255;-82
2021/12/01 02:13:44;;;;;;;;;6.00;6.00;;;;;9.90;73.58;100060.34;4914771;28;46697;-83
2021/12/01 02:16:10;;;;;;;;;3.00;3.00;;;;;9.80;74.54;100034.91;4911025;28;45409;-82
2021/12/01 02:18:42;;;;;;;;;2.75;2.75;;;;;9.88;74.33;100041.06;4916277;28;45548;-82
2021/12/01 02:21:26;;;;;;;;;12.25;8.25;;;;;9.53;73.78;99980.59;4930431;28;45236;-82
2021/12/01 02:23:52;;;;;;;;;6.25;6.25;;;;;9.80;74.71;100023.53;4913939;28;46700;-82
2021/12/01 02:26:20;;;;;;;;;6.00;6.00;;;;;9.83;74.82;100028.78;4932972;28;45414;-83
2021/12/01 02:28:48;;;;;;;;;6.50;4.25;;;;;9.84;74.47;100020.88;4933353;28;45486;-87
2021/12/01 02:31:14;;;;;;;;;9.00;6.25;;;;;9.63;75.23;99990.22;4918199;28;45292;-85
2021/12/01 02:33:41;;;;;;;;;6.25;6.25;;;;;9.75;75.52;100009.50;4932413;28;45420;-86
2021/12/01 02:36:11;;;;;;;;;8.00;6.50;;;;;9.51;76.42;99978.84;4927729;28;45505;-85
2021/12/01 02:38:40;;;;;;;;;7.00;7.00;;;;;9.33;76.11;99943.81;4926048;28;45330;-87
2021/12/01 02:41:06;;;;;;;;;8.00;7.50;;;;;9.38;76.86;99962.19;4924067;28;45398;-87
2021/12/01 02:43:31;;;;;;;;;7.00;7.00;;;;;9.50;77.46;99992.88;4922907;28;46578;-85
2021/12/01 02:45:57;;;;;;;;;10.00;10.00;;;;;9.41;78.57;99978.84;4923548;28;45471;-86
2021/12/01 02:48:23;;;;;;;;;9.50;9.50;;;;;9.40;78.59;99966.59;4925068;28;45289;-87
2021/12/01 02:50:50;;;;;;;;;9.50;9.25;;;;;9.40;79.03;99960.44;4928895;28;45158;-87
2021/12/01 02:53:20;;;;;;;;;11.50;11.50;;;;;9.17;78.88;99904.38;4926580;28;45525;-83
2021/12/01 02:55:52;;;;;;;;;8.00;8.00;;;;;9.36;78.78;99940.28;4922799;28;45422;-85
2021/12/01 02:58:19;;;;;;;;;7.00;7.00;;;;;9.19;78.82;99902.63;4924464;28;45302;-86
2021/12/01 03:00:45;;;;;;;;;11.75;9.75;;;;;9.33;79.12;99921.91;4924374;28;45673;-85
2021/12/01 03:03:12;;;;;;;;;10.00;8.50;;;;;9.30;78.93;99904.34;4929118;28;46178;-85
2021/12/01 03:05:38;;;;;;;;;5.50;5.50;;;;;9.31;78.93;99892.13;4923453;28;45291;-87
2021/12/01 03:08:04;;;;;;;;;9.50;8.75;;;;;9.32;79.95;99880.72;4922612;28;45542;-86
2021/12/01 03:10:30;;;;;;;;;7.00;5.50;;;;;9.08;79.07;99831.69;4921576;28;45379;-81
2021/12/01 03:12:56;;;;;;;;;6.25;6.25;;;;;9.21;79.19;99850.94;4921847;28;46055;-83
2021/12/01 03:15:21;;;;;;;;;6.75;6.75;;;;;9.33;79.19;99851.81;4922453;28;45383;-81
2021/12/01 03:17:46;;;;;;;;;5.50;3.00;;;;;9.09;78.74;99813.28;4921720;28;45386;-83
2021/12/01 03:20:14;;;;;;;;;2.25;2.25;;;;;9.29;78.95;99855.31;4921573;28;45405;-83
2021/12/01 03:22:41;;;;;;;;;4.00;3.25;;;;;9.38;78.64;99863.16;4922029;28;45465;-82
2021/12/01 03:25:09;;;;;;;;;6.00;4.00;;;;;9.04;79.04;99799.31;4922282;28;45337;-84
2021/12/01 03:27:36;;;;;;;;;3.00;3.00;;;;;9.47;78.88;99858.78;4922107;28;45506;-85
2021/12/01 03:30:03;;;;;;;;;4.00;3.00;;;;;9.33;78.46;99819.41;4922991;28;45379;-85
2021/12/01 03:32:28;;;;;;;;;5.75;2.25;;;;;9.29;78.51;99810.63;4925505;28;45464;-83
2021/12/01 03:34:54;;;;;;;;;2.25;2.25;;;;;9.53;78.65;99849.13;4925379;28;45382;-86
2021/12/01 03:37:19;;;;;;;;;3.25;3.00;;;;;9.26;78.99;99792.25;4924020;28;45340;-82
2021/12/01 03:39:45;;;;;;;;;2.75;2.75;;;;;9.46;79.17;99810.59;4922590;28;45373;-84
2021/12/01 03:42:10;;;;;;;;;2.00;2.00;;;;;9.27;78.84;99772.97;4920485;28;45487;-83
2021/12/01 03:44:35;;;;;;;;;2.75;2.00;;;;;9.46;78.40;99797.44;4922071;28;45217;-85
2021/12/01 03:47:01;;;;;;;;;2.00;2.00;;;;;9.53;79.00;99788.66;4921936;28;45411;-85
2021/12/01 03:49:26;;;;;;;;;3.00;2.50;;;;;9.38;79.45;99762.41;4904529;28;45275;-82
2021/12/01 03:51:52;;;;;;;;;3.00;3.00;;;;;9.59;79.93;99796.53;4902618;28;47294;-81
2021/12/01 03:54:17;;;;;;;;;3.25;2.50;;;;;9.58;80.57;99781.59;4930996;28;45211;-81
2021/12/01 03:56:43;;;;;;;;;2.50;2.50;;;;;9.30;80.45;99727.41;4935524;28;45326;-82
2021/12/01 03:59:08;;;;;;;;;3.50;2.00;;;;;9.41;80.41;99749.28;4921629;29;44661;-81
2021/12/01 04:01:34;;;;;;;;;2.00;2.00;;;;;9.58;80.61;99755.31;4921429;29;45154;-82
2021/12/01 04:03:59;;;;;;;;;2.25;2.25;;;;;9.52;80.96;99755.38;4919876;28;45183;-83
2021/12/01 04:06:27;;;;;;;;;3.00;2.75;;;;;9.58;82.07;99760.56;4946207;28;45124;-82
2021/12/01 04:08:53;;;;;;;;;2.00;2.00;;;;;9.24;81.77;99691.53;4927563;28;44877;-85
2021/12/01 04:11:18;;;;;;;;;6.00;3.00;;;;;8.92;82.32;99619.81;4938434;28;45309;-82
2021/12/01 04:13:44;;;;;;;;;3.00;3.00;;;;;9.45;82.23;99700.19;4935915;28;45330;-85
2021/12/01 04:16:09;;;;;;;;;2.50;2.50;;;;;9.26;82.43;99665.22;4926654;28;45412;-87
2021/12/01 04:18:37;;;;;;;;;3.00;3.00;;;;;9.18;82.73;99640.75;4926412;28;45535;-83
2021/12/01 04:21:03;;;;;;;;;5.00;5.00;;;;;9.19;82.97;99650.38;4924852;28;45394;-85
2021/12/01 04:23:30;;;;;;;;;4.00;4.00;;;;;9.16;82.38;99642.50;4927519;28;45305;-83
2021/12/01 04:25:56;;;;;;;;;1.00;1.00;;;;;9.43;83.31;99680.03;4924895;28;45208;-85
2021/12/01 04:28:21;;;;;;;;;5.25;4.25;;;;;9.31;83.19;99663.47;4922816;28;45569;-83
2021/12/01 04:30:47;;;;;;;;;3.75;3.75;;;;;9.23;82.67;99637.22;4923147;28;45573;-82
2021/12/01 04:33:12;;;;;;;;;7.75;7.75;;;;;9.51;83.40;99677.38;4922321;28;45425;-81
2021/12/01 04:35:38;;;;;;;;;2.50;2.50;;;;;9.34;83.38;99648.53;4921907;28;45300;-84
2021/12/01 04:38:03;;;;;;;;;6.25;6.25;;;;;9.44;83.70;99667.78;4921233;28;45296;-84
2021/12/01 04:40:29;;;;;;;;;3.75;3.75;;;;;9.40;83.84;99650.28;4921383;28;46365;-84
2021/12/01 04:42:54;;;;;;;;;7.00;4.25;;;;;9.17;84.35;99604.84;4921539;28;45502;-83
2021/12/01 04:45:22;;;;;;;;;4.50;4.50;;;;;9.30;84.27;99630.16;4921466;28;45557;-84
2021/12/01 04:47:52;;;;;;;;;3.75;3.75;;;;;9.29;84.68;99631.03;4922059;28;45205;-82
2021/12/01 04:50:21;;;;;;;;;8.00;6.50;;;;;9.18;85.01;99615.34;4903472;28;45504;-80
2021/12/01 04:52:47;;;;;;;;;6.75;6.75;;;;;9.19;85.39;99608.31;4902744;29;45426;-83
2021/12/01 04:55:13;;;;;;;;;3.75;2.00;;;;;9.21;84.86;99609.19;4903412;28;45285;-82
2021/12/01 04:57:40;;;;;;;;;4.00;4.00;;;;;9.22;85.15;99616.22;4921272;28;45214;-83
2021/12/01 05:00:07;;;;;;;;;5.00;3.75;;;;;9.05;84.61;99563.75;4907479;28;46171;-83
2021/12/01 05:02:32;;;;;;;;;3.00;3.00;;;;;9.24;85.00;99580.28;4902594;28;45338;-81
2021/12/01 05:04:58;;;;;;;;;2.75;2.25;;;;;9.06;84.95;99545.34;4919991;28;45729;-80
2021/12/01 05:07:23;;;;;;;;;1.00;1.00;;;;;8.89;84.69;99515.66;4920919;28;45288;-84
2021/12/01 05:09:49;;;;;;;;;3.50;3.00;;;;;9.05;85.29;99556.75;4911712;28;45984;-83
2021/12/01 05:12:14;;;;;;;;;3.50;2.75;;;;;9.00;85.68;99529.59;4902175;28;45310;-81
2021/12/01 05:14:40;;;;;;;;;1.00;1.00;;;;;8.97;85.44;99529.63;4906227;28;45648;-82
2021/12/01 05:17:06;;;;;;;;;3.00;1.50;;;;;8.79;85.59;99509.59;4901921;29;45337;-82
2021/12/01 05:19:32;;;;;;;;;2.00;2.00;;;;;8.98;86.17;99541.88;4902206;28;45445;-79
2021/12/01 05:21:58;;;;;;;;;1.25;1.25;;;;;9.08;86.56;99546.19;4901484;29;45636;-81
2021/12/01 05:24:23;;;;;;;;;2.00;2.00;;;;;9.05;86.96;99537.47;4912878;28;45229;-81
2021/12/01 05:26:49;;;;;;;;;2.00;2.00;;;;;8.85;86.99;99506.06;4906535;28;45313;-79
2021/12/01 05:29:16;;;;;;;;;0.00;0.00;;;;;9.09;86.62;99542.69;4907447;28;45512;-82
2021/12/01 05:31:41;;;;;;;;;0.75;0.75;;;;;9.10;87.08;99548.81;4906726;28;45409;-82
2021/12/01 05:34:07;;;;;;;;;1.00;1.00;;;;;8.85;86.49;99498.19;4920119;28;45267;-83
2021/12/01 05:36:33;;;;;;;;;0.25;0.25;;;;;9.05;86.66;99524.34;4920269;28;45355;-80
2021/12/01 05:38:58;;;;;;;;;0.75;0.75;;;;;8.94;86.70;99490.28;4920098;28;45383;-82
2021/12/01 05:41:24;;;;;;;;;1.25;0.75;;;;;9.18;86.80;99538.28;4918269;28;45348;-83
2021/12/01 05:43:49;;;;;;;;;0.00;0.00;;;;;9.21;86.54;99538.25;4919697;28;45778;-82
2021/12/01 05:46:15;;;;;;;;;0.00;0.00;;;;;9.17;86.48;99507.63;4920475;28;45346;-83
2021/12/01 05:48:40;;;;;;;;;0.75;0.75;;;;;9.18;86.39;99515.50;4919870;28;46491;-82
2021/12/01 05:51:06;;;;;;;;;0.00;0.00;;;;;9.08;86.25;99482.28;4917983;28;45421;-81
2021/12/01 05:53:32;;;;;;;;;1.00;1.00;;;;;9.27;86.50;99509.31;4919783;28;45201;-81
2021/12/01 05:55:58;;;;;;;;;0.00;0.00;;;;;9.00;85.96;99461.31;4919843;28;45327;-80
2021/12/01 05:58:23;;;;;;;;;2.00;1.00;;;;;9.21;86.21;99483.06;4919815;28;46523;-83
2021/12/01 06:00:49;;;;;;;;;1.00;0.00;;;;;9.28;86.16;99483.00;4917043;28;45406;-80
2021/12/01 06:03:14;;;;;;;;;0.00;0.00;;;;;9.25;86.22;99482.16;4902405;28;45292;-81
2021/12/01 06:05:40;;;;;;;;;0.00;0.00;;;;;9.38;85.67;99484.69;4919849;28;45168;-82
2021/12/01 06:08:06;;;;;;;;;0.00;0.00;;;;;9.11;85.51;99440.22;4919653;28;46209;-82
2021/12/01 06:10:31;;;;;;;;;0.50;0.50;;;;;9.36;85.34;99459.31;4907783;28;45406;-81
2021/12/01 06:12:57;;;;;;;;;0.50;0.50;;;;;9.36;85.74;99454.91;4901997;28;45437;-81
2021/12/01 06:15:22;;;;;;;;;0.00;0.00;;;;;9.24;85.90;99434.00;4909998;28;45467;-81
2021/12/01 06:17:48;;;;;;;;;0.00;0.00;;;;;9.35;86.24;99444.41;4918365;28;45787;-80
2021/12/01 06:20:14;;;;;;;;;0.00;0.00;;;;;9.47;85.83;99457.44;4919260;28;45402;-84
2021/12/01 06:22:42;;;;;;;;;0.00;0.00;;;;;9.25;86.29;99408.59;4918054;28;45320;-84
2021/12/01 06:25:08;;;;;;;;;0.00;0.00;;;;;9.48;86.38;99435.53;4918700;28;45413;-82
2021/12/01 06:27:35;;;;;;;;;0.00;0.00;;;;;9.36;86.50;99417.25;4919619;28;45480;-80
2021/12/01 06:30:00;;;;;;;;;1.00;1.00;;;;;9.47;86.57;99444.31;4914845;28;45168;-78
2021/12/01 06:32:25;;;;;;;;;1.00;1.00;;;;;9.39;87.74;99422.47;4895832;28;45294;-79
2021/12/01 06:34:51;;;;;;;;;0.25;0.25;;;;;9.38;86.05;99408.47;4913295;28;45477;-80
2021/12/01 06:37:18;;;;;;;;;0.00;0.00;;;;;9.58;86.16;99434.56;4912589;28;45950;-81
2021/12/01 06:39:44;;;;;;;;;0.00;0.00;;;;;9.48;86.93;99401.34;4919223;28;45398;-79
2021/12/01 06:42:09;;;;;;;;;0.00;0.00;;;;;9.53;86.47;99423.22;4918077;28;45458;-81
2021/12/01 06:44:35;;;;;;;;;0.25;0.25;;;;;9.62;86.67;99424.91;4903172;28;45466;-83
2021/12/01 06:47:02;;;;;;;;;0.00;0.00;;;;;9.64;86.68;99416.09;4918860;28;46003;-83
2021/12/01 06:49:28;;;;;;;;;1.00;1.00;;;;;9.67;86.90;99431.84;4917419;28;45319;-86
2021/12/01 06:51:53;;;;;;;;;1.00;1.00;;;;;9.73;85.80;99423.03;4906848;28;45490;-84
2021/12/01 06:54:19;;;;;;;;;0.00;0.00;;;;;9.63;85.82;99395.09;4901029;28;45535;-82
2021/12/01 06:56:44;;;;;;;;;0.00;0.00;;;;;9.58;85.73;99371.47;4914145;28;45466;-83
2021/12/01 06:59:10;;;;;;;;;0.50;0.00;;;;;9.50;86.23;99356.69;4903563;29;45170;-82
2021/12/01 07:01:35;;;;;;;;;0.00;0.00;;;;;9.84;86.14;99410.63;4907449;28;45293;-84
2021/12/01 07:04:01;;;;;;;;;0.00;0.00;;;;;9.02;85.71;99273.03;4923062;28;45450;-83
2021/12/01 07:06:26;;;;;;;;;0.00;0.00;;;;;9.59;86.03;99367.97;4927508;28;45460;-84
2021/12/01 07:08:52;;;;;;;;;2.00;0.00;;;;;9.76;85.88;99382.66;4929160;28;45482;-83
2021/12/01 07:11:18;;;;;;;;;0.00;0.00;;;;;9.95;85.73;99408.75;4923241;28;45318;-84
2021/12/01 07:13:43;;;;;;;;;0.75;0.75;;;;;9.69;86.60;99363.47;4920323;28;45499;-83
2021/12/01 07:16:08;;;;;;;;;0.00;0.00;;;;;9.92;86.30;99393.00;4914903;28;45385;-87
2021/12/01 07:18:34;;;;;;;;;0.00;0.00;;;;;9.84;85.75;99359.78;4886735;29;45370;-84
2021/12/01 07:20:59;;;;;;;;;0.00;0.00;;;;;10.05;86.38;99391.13;4909951;28;45486;-82
2021/12/01 07:23:25;;;;;;;;;0.00;0.00;;;;;9.97;86.31;99382.44;4922656;28;45351;-81
2021/12/01 07:25:52;;;;;;;;;0.00;0.00;;;;;10.10;86.46;99396.31;4920750;28;47236;-82
2021/12/01 07:28:17;;;;;;;;;0.00;0.00;;;;;10.03;85.67;99387.63;4921823;28;45230;-82
2021/12/01 07:30:43;;;;;;;;;0.00;0.00;;;;;9.92;85.87;99371.97;4922759;28;45269;-80
2021/12/01 07:33:08;;;;;;;;;1.75;1.75;;;;;10.02;86.16;99372.72;4889404;28;45543;-82
2021/12/01 07:35:34;;;;;;;;;0.00;0.00;;;;;10.18;86.50;99405.00;4921207;28;46434;-85
2021/12/01 07:37:59;;;;;;;;;0.00;0.00;;;;;9.97;86.73;99362.28;4920454;28;45782;-82
2021/12/01 07:40:25;;;;;;;;;0.00;0.00;;;;;9.98;86.70;99369.28;4921558;28;45233;-84
2021/12/01 07:42:51;;;;;;;;;0.00;0.00;;;;;10.20;86.60;99396.19;4922566;28;45189;-84
2021/12/01 07:45:17;;;;;;;;;1.00;1.00;;;;;10.22;85.94;99383.03;4904293;28;47106;-84
2021/12/01 07:47:43;;;;;;;;;0.00;0.00;;;;;10.23;85.37;99384.75;4919398;28;45711;-82
2021/12/01 07:50:09;;;;;;;;;1.00;1.00;;;;;9.95;85.22;99329.81;4921605;28;45303;-84
2021/12/01 07:52:35;;;;;;;;;0.25;0.00;;;;;10.25;85.48;99388.28;4920022;28;45537;-83
2021/12/01 07:55:02;;;;;;;;;0.00;0.00;;;;;10.45;84.98;99394.13;4904488;28;47474;-84
2021/12/01 07:57:27;;;;;;;;;0.00;0.00;;;;;10.32;84.72;99370.63;4902818;28;46171;-83
2021/12/01 07:59:53;;;;;;;;;0.00;0.00;;;;;10.10;84.90;99326.13;4919233;28;45160;-83
2021/12/01 08:02:18;;;;;;;;;0.00;0.00;;;;;10.45;84.67;99372.19;4914250;28;45514;-83
2021/12/01 08:04:44;;;;;;;;;0.00;0.00;;;;;10.35;84.30;99353.03;4904973;28;45789;-84
2021/12/01 08:07:09;;;;;;;;;2.00;0.00;;;;;10.65;84.03;99366.66;4921552;28;45263;-79
2021/12/01 08:09:35;;;;;;;;;0.00;0.00;;;;;10.69;83.74;99377.09;4919933;28;45296;-83
2021/12/01 08:12:00;;;;;;;;;1.00;0.75;;;;;10.76;84.04;99367.34;4911521;28;45482;-83
2021/12/01 08:14:26;;;;;;;;;2.00;0.00;;;;;10.44;83.34;99302.03;4915230;28;45771;-85
2021/12/01 08:16:52;;;;;;;;;0.25;0.25;;;;;10.68;82.53;99348.16;4903884;28;45469;-82
2021/12/01 08:19:18;;;;;;;;;0.00;0.00;;;;;10.88;82.56;99363.66;4916209;28;45443;-81
2021/12/01 08:21:47;;;;;;;;;0.00;0.00;;;;;10.85;81.84;99352.28;4921557;28;45447;-83
2021/12/01 08:24:14;;;;;;;;;0.50;0.50;;;;;10.63;82.99;99306.09;4920785;28;45408;-82
2021/12/01 08:26:41;;;;;;;;;1.25;0.00;;;;;10.84;82.36;99352.28;4920513;28;45357;-82
2021/12/01 08:29:07;;;;;;;;;0.00;0.00;;;;;10.79;81.97;99338.31;4909139;28;45525;-79
2021/12/01 08:31:33;;;;;;;;;0.00;0.00;;;;;10.87;82.59;99361.91;4920358;28;45574;-83
2021/12/01 08:33:59;;;;;;;;;0.00;0.00;;;;;10.97;82.61;99363.50;4920800;28;45505;-82
2021/12/01 08:36:24;;;;;;;;;0.00;0.00;;;;;11.04;82.10;99354.59;4920703;28;45383;-80
2021/12/01 08:38:49;;;;;;;;;2.50;1.00;;;;;10.90;80.95;99322.38;4920616;28;45308;-79
2021/12/01 08:41:15;;;;;;;;;1.00;1.00;;;;;10.83;81.00;99314.56;4926611;28;45681;-80
2021/12/01 08:43:40;;;;;;;;;0.00;0.00;;;;;10.99;81.83;99328.34;4936162;28;46379;-82
2021/12/01 08:46:07;;;;;;;;;1.00;1.00;;;;;11.37;80.20;99353.16;4908898;28;45833;-82
2021/12/01 08:48:32;;;;;;;;;0.00;0.00;;;;;11.51;79.42;99363.44;4920913;28;45537;-82
2021/12/01 08:51:01;;;;;;;;;0.00;0.00;;;;;11.50;79.57;99346.75;4903046;28;45242;-79
2021/12/01 08:53:31;;;;;;;;;0.00;0.00;;;;;11.54;79.07;99318.53;4921118;28;46467;-82
2021/12/01 08:55:57;;;;;;;;;0.00;0.00;;;;;11.80;78.49;99358.50;4916082;28;45461;-82
2021/12/01 08:58:23;;;;;;;;;2.00;1.00;;;;;11.61;78.83;99321.03;4920336;28;45271;-81
2021/12/01 09:00:49;;;;;;;;;1.25;1.00;;;;;11.40;77.09;99269.59;4916546;28;45621;-81
2021/12/01 09:03:16;;;;;;;;;1.25;1.25;;;;;11.76;76.43;99306.69;4907224;28;45539;-81
2021/12/01 09:05:44;;;;;;;;;1.00;1.00;;;;;11.67;76.85;99277.84;4919873;28;45479;-82
2021/12/01 09:08:10;;;;;;;;;0.75;0.75;;;;;12.18;75.46;99356.84;4916194;28;45445;-82
2021/12/01 09:10:36;;;;;;;;;1.00;0.00;;;;;12.05;75.54;99306.09;4888819;28;45544;-82
2021/12/01 09:13:04;;;;;;;;;3.50;3.00;;;;;12.24;74.13;99301.28;4903061;28;47241;-81
2021/12/01 09:15:29;;;;;;;;;2.75;2.75;;;;;12.65;73.05;99341.72;4920234;28;45275;-82
2021/12/01 09:17:57;;;;;;;;;0.00;0.00;;;;;12.82;71.92;99347.50;4935571;28;45470;-77
2021/12/01 09:20:22;;;;;;;;;1.00;1.00;;;;;12.84;71.34;99341.28;4922354;28;45540;-80
2021/12/01 09:22:48;;;;;;;;;1.25;0.00;;;;;12.75;71.26;99314.19;4913683;28;46811;-74
2021/12/01 09:25:18;;;;;;;;;0.00;0.00;;;;;12.48;71.20;99294.59;4909158;28;45332;-81
2021/12/01 09:27:45;;;;;;;;;2.50;2.50;;;;;12.68;71.63;99341.69;4917433;28;45303;-79
2021/12/01 09:30:12;;;;;;;;;1.00;1.00;;;;;12.53;71.19;99327.03;4917072;28;45525;-80
2021/12/01 09:32:38;;;;;;;;;1.25;1.00;;;;;12.36;71.81;99322.13;4922740;28;45476;-82
2021/12/01 09:35:08;;;;;;;;;2.75;1.00;;;;;12.20;72.12;99303.16;4932071;28;45492;-83
2021/12/01 09:37:34;;;;;;;;;1.00;1.00;;;;;12.05;71.37;99308.75;4920235;28;45335;-82
2021/12/01 09:40:02;;;;;;;;;0.00;0.00;;;;;11.60;71.60;99248.09;4928620;28;45671;-82
2021/12/01 09:42:28;;;;;;;;;1.00;1.00;;;;;11.43;71.53;99232.59;4919812;28;45459;-83
2021/12/01 09:44:55;;;;;;;;;1.00;1.00;;;;;11.72;71.39;99297.09;4918754;28;45430;-80
2021/12/01 09:47:21;;;;;;;;;1.00;1.00;;;;;12.10;72.08;99361.44;4914283;28;45427;-80
2021/12/01 09:49:47;;;;;;;;;0.00;0.00;;;;;11.96;71.51;99330.94;4908555;28;45374;-82
2021/12/01 09:52:13;;;;;;;;;3.00;0.25;;;;;12.13;70.80;99342.91;4916639;28;46458;-81
2021/12/01 09:54:39;;;;;;;;;0.75;0.75;;;;;11.98;71.16;99328.25;4919876;28;45315;-82
2021/12/01 09:57:12;;;;;;;;;2.00;2.00;;;;;12.01;71.13;99324.69;4919932;28;45547;-83
2021/12/01 09:59:37;;;;;;;;;0.00;0.00;;;;;11.93;71.17;99345.97;4920011;28;45169;-83
2021/12/01 10:02:03;;;;;;;;;2.00;0.00;;;;;12.32;70.20;99364.50;4919298;28;46402;-83
2021/12/01 10:04:29;;;;;;;;;2.00;0.25;;;;;12.50;69.72;99375.53;4919558;28;45768;-83
2021/12/01 10:07:15;;;;;;;;;2.00;0.00;;;;;12.70;68.47;99355.72;4919872;28;45250;-82
2021/12/01 10:09:46;;;;;;;;;1.00;1.00;;;;;12.59;68.02;99341.88;4920041;28;46073;-83
2021/12/01 10:12:13;;;;;;;;;0.00;0.00;;;;;12.64;67.46;99367.28;4919154;28;45506;-82
2021/12/01 10:14:44;;;;;;;;;0.00;0.00;;;;;12.27;68.29;99332.91;4919631;28;45268;-82
2021/12/01 10:17:10;;;;;;;;;1.00;0.00;;;;;11.97;68.55;99306.28;4919757;28;45434;-82
2021/12/01 10:19:35;;;;;;;;;0.00;0.00;;;;;12.31;68.93;99373.31;4919782;28;45323;-82
2021/12/01 10:22:08;;;;;;;;;1.00;1.00;;;;;12.21;69.46;99394.66;4919380;28;46135;-80
2021/12/01 10:24:36;;;;;;;;;0.00;0.00;;;;;12.02;69.70;99400.34;4919032;28;45457;-82
2021/12/01 10:27:08;;;;;;;;;0.00;0.00;;;;;11.83;69.63;99390.13;4919709;28;45365;-81
2021/12/01 10:29:48;;;;;;;;;0.00;0.00;;;;;11.67;71.62;99393.91;4921885;28;45332;-82
2021/12/01 10:32:17;;;;;;;;;0.00;0.00;;;;;11.24;71.20;99349.84;4922741;28;46252;-81
2021/12/01 10:34:47;;;;;;;;;0.25;0.25;;;;;11.03;73.29;99348.47;4922459;28;45471;-80
2021/12/01 10:37:30;;;;;;;;;0.00;0.00;;;;;11.09;74.04;99389.66;4922774;28;45311;-82
2021/12/01 10:40:21;;;;;;;;;1.00;0.00;;;;;11.00;75.75;99388.06;4922927;28;45454;-81
2021/12/01 10:42:57;;;;;;;;;2.00;2.00;;;;;10.91;76.17;99388.19;4922399;28;46712;-81
2021/12/01 10:45:24;;;;;;;;;2.75;1.00;;;;;10.66;75.84;99348.19;4922162;28;45351;-82
2021/12/01 10:47:50;;;;;;;;;0.25;0.25;;;;;10.79;76.07;99376.06;4922672;28;45309;-83
2021/12/01 10:50:19;;;;;;;;;0.00;0.00;;;;;10.85;75.92;99364.56;4922263;28;45492;-82
2021/12/01 10:53:03;;;;;;;;;0.75;0.75;;;;;11.05;74.60;99385.31;4905418;28;48665;-83
2021/12/01 10:55:30;;;;;;;;;1.00;1.00;;;;;10.64;75.08;99313.09;4922349;28;45451;-83
2021/12/01 10:58:03;;;;;;;;;2.00;2.00;;;;;10.75;74.56;99331.38;4922481;28;45249;-83
2021/12/01 11:00:44;;;;;;;;;0.00;0.00;;;;;10.63;74.08;99292.06;4922572;28;45498;-81
2021/12/01 11:03:17;;;;;;;;;4.00;2.00;;;;;11.45;73.25;99380.28;4922266;28;45370;-83
2021/12/01 11:05:47;;;;;;;;;2.00;2.00;;;;;11.76;71.52;99366.50;4921946;28;45458;-83
2021/12/01 11:08:19;;;;;;;;;1.00;1.00;;;;;11.98;71.47;99387.19;4914547;28;45597;-83
2021/12/01 11:10:48;;;;;;;;;3.00;3.00;;;;;11.83;69.90;99339.13;4907790;28;45346;-83
2021/12/01 11:13:16;;;;;;;;;5.00;5.00;;;;;12.14;70.40;99387.75;4921925;28;45251;-82
2021/12/01 11:15:53;;;;;;;;;1.75;1.75;;;;;12.08;69.28;99356.19;4921998;28;45253;-85
2021/12/01 11:18:24;;;;;;;;;3.25;2.00;;;;;12.10;69.80;99357.06;4915125;28;45569;-83
2021/12/01 11:20:52;;;;;;;;;2.00;2.00;;;;;12.09;69.74;99357.91;4922259;28;45501;-80
2021/12/01 11:23:33;;;;;;;;;1.50;1.50;;;;;12.02;70.32;99374.81;4909087;28;45634;-82
2021/12/01 11:26:04;;;;;;;;;2.00;2.00;;;;;11.92;70.10;99357.44;4910560;28;45470;-80
2021/12/01 11:28:32;;;;;;;;;1.25;1.25;;;;;11.65;70.77;99328.00;4929759;28;45441;-84
2021/12/01 11:31:00;;;;;;;;;2.75;1.50;;;;;11.67;70.09;99320.94;4916614;28;45215;-82
2021/12/01 11:33:27;;;;;;;;;4.00;4.00;;;;;11.98;70.39;99360.78;4916404;28;45547;-85
2021/12/01 11:36:03;;;;;;;;;2.00;1.50;;;;;11.81;69.65;99290.78;4919940;28;45276;-81
2021/12/01 11:38:32;;;;;;;;;2.75;2.00;;;;;12.36;68.86;99356.47;4916310;28;45501;-87
2021/12/01 11:40:59;;;;;;;;;2.25;2.25;;;;;12.57;68.23;99360.44;4901824;28;45229;-86
2021/12/01 11:43:28;;;;;;;;;4.00;3.00;;;;;12.34;67.70;99267.63;4914506;28;45407;-83
2021/12/01 11:45:54;;;;;;;;;3.25;2.00;;;;;12.58;67.05;99298.75;4898608;29;45418;-86
2021/12/01 11:48:25;;;;;;;;;2.25;2.00;;;;;12.91;66.48;99346.41;4903354;29;45378;-81
2021/12/01 11:51:08;;;;;;;;;3.00;3.00;;;;;12.91;66.04;99356.97;4902182;29;45409;-83
2021/12/01 11:53:46;;;;;;;;;5.00;3.00;;;;;12.60;66.55;99311.94;4898695;29;45458;-79